Hauptseite
METAR-TAF:

METAR-TAF

Flughäfen :

Flughafen Lannion-Côte de Granit

Lannion, Frankreich

Breite: 48-45N, Länge: 003-28W, Höhe: 89 m

Beobachtung

Neuester Wetterbericht von vor 39 Minuten, um 12:00 UTC
Wind 15 kt aus West
Temperatur 12°C
Luftfeuchtigkeit 82%
Luftdruck 1014 hPa
Sichtweite 10 km oder mehr
Durchbrochene Bewölkung in der Höhe von 1600 ft
Geschlossene Wolkendecke in der Höhe von 4000 ft

METAR: LFRO 261200Z AUTO 26015KT 9999 BKN016 OVC040 12/09 Q1014

Zeit: 14:39 (12:39 UTC)


TAF: fehlend

Wetterbeobachtungen und Prognosen von mehr als 4000 Flughäfen (METAR und TAF Bericht).

Die verfügbaren Stationen werden durch gelbe und rote Markierungen auf der Karte dargestellt.

Führen Sie die Maus auf sie, um den Namen der Station zu sehen.

Darauf klicken, um die Beobachtung von Wetterbeobachtungen und Prognosen zu sehen.

Um die Karte zu ändern : klicken Sie auf den grünen Tasten mit einem schwarzen Kreuz Zum Vergrößern, auf den grünen Button mit einem Gedankenstrich zu verkleinern, oder auf die grünen Pfeile für benachbarte Karten.


METAR-TAF: